Flight Track Log - Related Links

Times and Time Zones

All times are in EDT time to prevent confusion due to time zone crossing. See the WSG717 flight status page for this flight to view local times or setup timezone preferences in your user account.

Time Position Orientation Groundspeed Altitude Reporting Facility
EDT Latitude Longitude Course Direction KTS MPH feet Rate Location/Type
Fri 08:06:21 PM 50.0500 -91.8000 135° Southeast 150 173 3,900  Level Winnipeg Center
Fri 08:07:21 PM 50.0333 -91.7500 117° Southeast 160 184 5,400 1,500 Climbing Winnipeg Center
Fri 08:08:21 PM 49.9833 -91.7000 147° Southeast 160 184 6,900 1,400 Climbing Winnipeg Center
Fri 08:09:21 PM 49.9500 -91.6500 136° Southeast 160 184 8,200 1,400 Climbing Winnipeg Center
Fri 08:10:00 PM 49.8534 -91.5018 134° Southeast  Level Estimated
Fri 08:10:21 PM 49.9167 -91.6167 147° Southeast 170 196 9,700  Level Winnipeg Center
Fri 08:11:00 PM 49.8100 -91.4346 135° Southeast  Level FlightAware Approximate
Fri 08:11:21 PM 49.8833 -91.5667 136° Southeast 180 207 11,000  Level Winnipeg Center
Fri 08:12:21 PM 49.8500 -91.4833 122° Southeast 180 207 12,200 1,250 Climbing Winnipeg Center
Fri 08:13:21 PM 49.8167 -91.4333 136° Southeast 190 219 13,500 1,250 Climbing Winnipeg Center
Fri 08:14:21 PM 49.7667 -91.3667 139° Southeast 200 230 14,700 1,350 Climbing Winnipeg Center
Fri 08:15:21 PM 49.7333 -91.3167 136° Southeast 200 230 16,200 1,150 Climbing Winnipeg Center
Fri 08:16:21 PM 49.7000 -91.2500 128° Southeast 210 242 17,000 400 Climbing Winnipeg Center
Fri 08:17:21 PM 49.6500 -91.1833 139° Southeast 250 288 17,000  Level Winnipeg Center
Fri 08:18:21 PM 49.5833 -91.0833 136° Southeast 270 311 17,000  Level Winnipeg Center
Fri 08:19:21 PM 49.5333 -91.0000 133° Southeast 280 322 17,000  Level Winnipeg Center
Fri 08:20:21 PM 49.4667 -90.9167 141° Southeast 290 334 17,000  Level Winnipeg Center
Fri 08:21:21 PM 49.4333 -90.8333 122° Southeast 290 334 17,000  Level Winnipeg Center
Fri 08:22:21 PM 49.3500 -90.7500 147° Southeast 290 334 17,000  Level Winnipeg Center
Fri 08:23:21 PM 49.3000 -90.6833 139° Southeast 290 334 17,000  Level Winnipeg Center
Fri 08:24:21 PM 49.2500 -90.5833 127° Southeast 290 334 17,000  Level Winnipeg Center
Fri 08:25:21 PM 49.1833 -90.4833 136° Southeast 290 334 17,000  Level Winnipeg Center
Fri 08:26:21 PM 49.1167 -90.4000 141° Southeast 290 334 17,000  Level Winnipeg Center
Fri 08:27:21 PM 49.0667 -90.3167 132° Southeast 290 334 17,000 -400 Level Winnipeg Center
Fri 08:28:21 PM 49.0000 -90.2333 141° Southeast 300 345 16,200 -850 Descending Winnipeg Center
Fri 08:29:21 PM 48.9500 -90.1333 127° Southeast 310 357 15,300 -950 Descending Winnipeg Center
Fri 08:30:21 PM 48.8833 -90.0667 147° Southeast 300 345 14,300 -950 Descending Winnipeg Center
Fri 08:31:21 PM 48.8167 -89.9833 141° Southeast 300 345 13,400 -950 Descending Winnipeg Center
Fri 08:32:21 PM 48.7667 -89.8833 127° Southeast 290 334 12,400 -1,050 Descending Winnipeg Center
Fri 08:33:21 PM 48.7000 -89.8167 147° Southeast 280 322 11,300 -1,100 Descending Winnipeg Center
Fri 08:34:21 PM 48.6333 -89.7167 135° Southeast 270 311 10,200 -1,150 Descending Winnipeg Center
Fri 08:35:21 PM 48.5833 -89.6500 139° Southeast 260 299 9,000 -1,100 Descending Winnipeg Center
Fri 08:36:21 PM 48.5333 -89.5833 139° Southeast 260 299 8,000 -1,000 Descending Winnipeg Center
Fri 08:37:21 PM 48.5000 -89.5167 127° Southeast 250 288 7,000 -1,050 Descending Winnipeg Center
Fri 08:38:21 PM 48.4333 -89.4500 146° Southeast 240 276 5,900 -1,500 Descending Winnipeg Center
Fri 08:39:21 PM 48.3833 -89.3833 138° Southeast 220 253 4,000 -2,150 Descending Winnipeg Center
Fri 08:40:21 PM 48.3667 -89.3333 117° Southeast 150 173 1,600 -1,650 Descending Winnipeg Center
Fri 08:41:21 PM 48.3500 -89.2833 117° Southeast 120 138 700 -900 Descending Winnipeg Center

Login

Don't have an account? Register now (free) for customized features, flight alerts, and more!